Etoile, KY (42131)

4:50 PM CDT on July 26, 2016 (GMT -0500)
Scout Reservation | | Change Station

Elev 780 ft 36.90 °N, 85.88 °W | Updated 8 seconds ago

Scattered Clouds
Scattered Clouds
94.9 °F
Feels Like 113 °F
N
0.0
Wind Variable Wind from WSW
Gusts 0.0 mph

Today
High -- | Low -- °F
--% Chance of Precip.
Yesterday
High -- | Low -- °F
Precip. -- in
Pressure 29.97 in
Visibility 10.0 miles
Clouds Scattered Clouds 4600 ft
Scattered Clouds 6000 ft
Scattered Clouds 7000 ft
Heat Index 113 °F
Dew Point 79 °F
Humidity 60%
Rainfall 0.00 in
Snow Depth Not available.
5:44 AM 7:54 PM
Waning Gibbous, 51% visible
METAR KGLW 262135Z AUTO 26005KT 10SM SCT046 SCT060 SCT070 34/22 A2997 RMK AO2 T03390218 PWINO
Pressure 29.97 in
Visibility 10.0 miles
Clouds Scattered Clouds 4600 ft
Scattered Clouds 6000 ft
Scattered Clouds 7000 ft
Heat Index 113 °F
Dew Point 79 °F
Humidity 60%
Rainfall 0.00 in
Snow Depth Not available.
5:44 AM 7:54 PM
Waning Gibbous, 51% visible
METAR KGLW 262135Z AUTO 26005KT 10SM SCT046 SCT060 SCT070 34/22 A2997 RMK AO2 T03390218 PWINO

10-Day Weather Forecast

Almanac

Astronomy

Jul. 26, 2016 Rise Set
Actual Time
Civil Twilight
Nautical Twilight
Astronomical Twilight
Moon
Length of Visible Light
Length of Day
Tomorrow will be .
, % of the Moon is Illuminated

Today's Extremes

State Highs State Lows

Community

WunderPhotos

Upload Photos

1,927,702 photos uploaded!

WunderBlog® & News

Nearby

Air Quality

  Air Quality AQ Index Pollutant
Not available.

Snow Depth

Station Depth Elevation

Earthquake Activity

City Distance Mag. Time & Date
Minimum magnitude displayed is 2.5.

Coastal Water Temperatures

Place Temperature

Stations

Nearby Weather Stations

Station Location Temp. Windchill Dew Point Humidity Wind Precip. Elev Updated Type
                   

Watches & Warnings

There are currently no watches in effect.